createdAt,value
2018-01-28T00:00:26.439Z,22.5
2018-01-28T00:01:26.462Z,22.4
2018-01-28T00:02:27.019Z,22.4
2018-01-28T00:03:26.476Z,22.4
2018-01-28T00:04:26.324Z,22.4
2018-01-28T00:05:26.140Z,22.4
2018-01-28T00:06:26.100Z,22.4
2018-01-28T00:07:25.953Z,22.4
2018-01-28T00:08:25.871Z,22.4
2018-01-28T00:09:25.741Z,22.4
2018-01-28T00:10:25.749Z,22.5
2018-01-28T00:11:25.606Z,22.4
2018-01-28T00:12:25.554Z,22.4
2018-01-28T00:13:25.736Z,22.5
2018-01-28T00:14:25.307Z,22.4
2018-01-28T00:15:25.748Z,22.4
2018-01-28T00:16:25.179Z,22.4
2018-01-28T00:17:25.105Z,22.4
2018-01-28T00:18:25.036Z,22.4
2018-01-28T00:19:25.096Z,22.4
2018-01-28T00:20:24.954Z,22.4
2018-01-28T00:21:24.879Z,22.4
2018-01-28T00:22:24.838Z,22.4
2018-01-28T00:23:24.602Z,22.4
2018-01-28T00:24:24.604Z,22.4
2018-01-28T00:25:24.508Z,22.4
2018-01-28T00:26:24.611Z,22.4
2018-01-28T00:27:24.338Z,22.5
2018-01-28T00:28:24.469Z,22.4
2018-01-28T00:29:24.247Z,22.4
2018-01-28T00:30:24.167Z,22.4
2018-01-28T00:31:23.969Z,22.5
2018-01-28T00:32:24.211Z,22.5
2018-01-28T00:33:23.951Z,22.5
2018-01-28T00:34:23.863Z,22.5
2018-01-28T00:35:23.892Z,22.5
2018-01-28T00:36:23.670Z,22.5
2018-01-28T00:37:23.549Z,22.4
2018-01-28T00:38:23.643Z,22.4
2018-01-28T00:39:23.712Z,22.4
2018-01-28T00:40:23.696Z,22.4
2018-01-28T00:41:23.355Z,22.4
2018-01-28T00:42:23.217Z,22.4
2018-01-28T00:43:23.470Z,22.4
2018-01-28T00:44:23.129Z,22.4
2018-01-28T00:45:23.106Z,22.4
2018-01-28T00:46:22.975Z,22.3
2018-01-28T00:47:23.234Z,22.4
2018-01-28T00:48:22.765Z,22.3
2018-01-28T00:49:22.885Z,22.3
2018-01-28T00:50:22.987Z,22.3
2018-01-28T00:51:22.624Z,22.3
2018-01-28T00:52:22.695Z,22.3
2018-01-28T00:53:22.264Z,22.3
2018-01-28T00:54:22.218Z,22.3
2018-01-28T00:55:22.264Z,22.3
2018-01-28T00:56:22.353Z,22.3
2018-01-28T00:57:22.101Z,22.3
2018-01-28T00:58:22.086Z,22.3
2018-01-28T00:59:21.893Z,22.3
2018-01-28T01:00:21.745Z,22.3
2018-01-28T01:01:21.733Z,22.2
2018-01-28T01:02:21.998Z,22.3
2018-01-28T01:03:21.545Z,22.3
2018-01-28T01:04:21.420Z,22.3
2018-01-28T01:05:21.582Z,22.3
2018-01-28T01:06:21.335Z,22.3
2018-01-28T01:07:21.373Z,22.3
2018-01-28T01:08:21.247Z,22.3
2018-01-28T01:09:21.358Z,22.3
2018-01-28T01:10:21.030Z,22.3
2018-01-28T01:11:21.098Z,22.3
2018-01-28T01:12:20.895Z,22.3
2018-01-28T01:13:20.841Z,22.3
2018-01-28T01:14:20.797Z,22.3
2018-01-28T01:15:20.606Z,22.3
2018-01-28T01:16:20.600Z,22.3
2018-01-28T01:17:20.478Z,22.3
2018-01-28T01:18:20.513Z,22.3
2018-01-28T01:19:20.292Z,22.3
2018-01-28T01:20:20.267Z,22.3
2018-01-28T01:21:20.183Z,22.3
2018-01-28T01:22:20.103Z,22.3
2018-01-28T01:23:20.119Z,22.3
2018-01-28T01:24:19.806Z,22.3
2018-01-28T01:25:19.814Z,22.2
2018-01-28T01:26:19.766Z,22.2
2018-01-28T01:27:19.791Z,22.2
2018-01-28T01:28:19.852Z,22.2
2018-01-28T01:29:19.459Z,22.2
2018-01-28T01:30:19.346Z,22.2
2018-01-28T01:31:19.658Z,22.2
2018-01-28T01:32:19.198Z,22.2
2018-01-28T01:33:19.364Z,22.1
2018-01-28T01:34:19.109Z,22.1
2018-01-28T01:35:19.174Z,22.1
2018-01-28T01:36:18.986Z,22.1
2018-01-28T01:37:18.855Z,22.1
2018-01-28T01:38:18.858Z,22.1
2018-01-28T01:39:18.859Z,22.1
2018-01-28T01:40:18.548Z,22.1
2018-01-28T01:41:18.627Z,22.1
2018-01-28T01:42:18.515Z,22.1
2018-01-28T01:43:18.575Z,22.1
2018-01-28T01:44:18.480Z,22.1
2018-01-28T01:45:18.413Z,22.1
2018-01-28T01:46:18.505Z,22.1
2018-01-28T01:47:18.220Z,22.1
2018-01-28T01:48:18.340Z,22.1
2018-01-28T01:49:17.842Z,22.1
2018-01-28T01:50:18.165Z,22.1
2018-01-28T01:51:17.683Z,22.1
2018-01-28T01:52:18.048Z,22.2
2018-01-28T01:53:17.645Z,22.2
2018-01-28T01:54:17.598Z,22.3
2018-01-28T01:55:17.454Z,22.3
2018-01-28T01:56:17.525Z,22.3
2018-01-28T01:57:17.218Z,22.3
2018-01-28T01:58:17.956Z,22.3
2018-01-28T01:59:17.074Z,22.3
2018-01-28T02:00:17.598Z,22.3
2018-01-28T02:01:16.963Z,22.3
2018-01-28T02:02:16.861Z,22.3
2018-01-28T02:03:16.897Z,22.2
2018-01-28T02:04:16.878Z,22.2
2018-01-28T02:05:16.635Z,22.2
2018-01-28T02:06:16.591Z,22.2
2018-01-28T02:07:16.657Z,22.2
2018-01-28T02:08:16.812Z,22.2
2018-01-28T02:09:16.439Z,22.2
2018-01-28T02:10:16.233Z,22.2
2018-01-28T02:11:16.329Z,22.2
2018-01-28T02:12:16.296Z,22.1
2018-01-28T02:13:15.953Z,22.2
2018-01-28T02:14:16.339Z,22.1
2018-01-28T02:15:15.916Z,22.2
2018-01-28T02:16:16.069Z,22.1
2018-01-28T02:17:15.907Z,22.1
2018-01-28T02:18:15.704Z,22.1
2018-01-28T02:19:15.888Z,22.1
2018-01-28T02:20:15.623Z,22.1
2018-01-28T02:21:15.481Z,22.1
2018-01-28T02:22:15.400Z,22.1
2018-01-28T02:23:15.383Z,22.1
2018-01-28T02:24:15.290Z,22.1
2018-01-28T02:25:15.276Z,22.1
2018-01-28T02:26:15.135Z,22.1
2018-01-28T02:27:15.421Z,22.1
2018-01-28T02:28:15.292Z,22.1
2018-01-28T02:29:14.814Z,22.1
2018-01-28T02:30:14.919Z,22.1
2018-01-28T02:31:14.697Z,22.1
2018-01-28T02:32:14.588Z,22.2
2018-01-28T02:33:14.419Z,22.2
2018-01-28T02:34:14.800Z,22.2
2018-01-28T02:35:14.309Z,22.2
2018-01-28T02:36:14.266Z,22.2
2018-01-28T02:37:14.402Z,22.2
2018-01-28T02:38:14.571Z,22.2
2018-01-28T02:39:14.256Z,22.2
2018-01-28T02:40:13.963Z,22.2
2018-01-28T02:41:14.048Z,22.1
2018-01-28T02:42:14.216Z,22.1
2018-01-28T02:43:13.777Z,22.1
2018-01-28T02:44:13.750Z,22.1
2018-01-28T02:45:13.840Z,22.1
2018-01-28T02:46:13.408Z,22.1
2018-01-28T02:47:13.884Z,22.1
2018-01-28T02:48:13.628Z,22.1
2018-01-28T02:49:13.184Z,22.1
2018-01-28T02:50:13.463Z,22.1
2018-01-28T02:51:13.053Z,22.1
2018-01-28T02:52:13.049Z,22.1
2018-01-28T02:53:13.029Z,22.1
2018-01-28T02:54:12.889Z,22.2
2018-01-28T02:55:12.672Z,22.2
2018-01-28T02:56:12.654Z,22.2
2018-01-28T02:57:12.532Z,22.2
2018-01-28T02:58:12.648Z,22.2
2018-01-28T02:59:12.618Z,22.2
2018-01-28T03:00:12.344Z,22.2
2018-01-28T03:01:12.529Z,22.2
2018-01-28T03:02:12.186Z,22.3
2018-01-28T03:03:12.177Z,22.3
2018-01-28T03:04:12.070Z,22.3
2018-01-28T03:05:12.109Z,22.3
2018-01-28T03:06:12.091Z,22.3
2018-01-28T03:07:11.711Z,22.3
2018-01-28T03:08:11.860Z,22.3
2018-01-28T03:09:11.726Z,22.3
2018-01-28T03:10:12.021Z,22.3
2018-01-28T03:11:11.617Z,22.3
2018-01-28T03:12:11.512Z,22.3
2018-01-28T03:13:11.350Z,22.3
2018-01-28T03:14:11.386Z,22.3
2018-01-28T03:15:11.239Z,22.3
2018-01-28T03:16:11.019Z,22.3
2018-01-28T03:17:11.451Z,22.3
2018-01-28T03:18:10.842Z,22.3
2018-01-28T03:19:10.849Z,22.3
2018-01-28T03:20:11.009Z,22.3
2018-01-28T03:21:10.741Z,22.3
2018-01-28T03:22:10.656Z,22.3
2018-01-28T03:23:10.607Z,22.3
2018-01-28T03:24:10.664Z,22.3
2018-01-28T03:25:10.525Z,22.3
2018-01-28T03:26:10.337Z,22.3
2018-01-28T03:27:10.395Z,22.3
2018-01-28T03:28:10.180Z,22.3
2018-01-28T03:29:10.030Z,22.3
2018-01-28T03:30:10.081Z,22.3
2018-01-28T03:31:10.412Z,22.3
2018-01-28T03:32:10.113Z,22.2
2018-01-28T03:33:09.750Z,22.2
2018-01-28T03:34:10.275Z,22.2
2018-01-28T03:35:09.813Z,22.2
2018-01-28T03:36:09.681Z,22.2
2018-01-28T03:37:09.383Z,22.3
2018-01-28T03:38:09.474Z,22.3
2018-01-28T03:39:09.424Z,22.3
2018-01-28T03:40:09.413Z,22.3
2018-01-28T03:41:09.190Z,22.3
2018-01-28T03:42:09.136Z,22.3
2018-01-28T03:43:09.109Z,22.3
2018-01-28T03:44:08.830Z,22.3
2018-01-28T03:45:08.786Z,22.3
2018-01-28T03:46:08.891Z,22.3
2018-01-28T03:47:08.723Z,22.3
2018-01-28T03:48:08.700Z,22.3
2018-01-28T03:49:08.521Z,22.3
2018-01-28T03:50:08.500Z,22.3
2018-01-28T03:51:08.768Z,22.3
2018-01-28T03:52:08.272Z,22.3
2018-01-28T03:53:08.409Z,22.3
2018-01-28T03:54:08.222Z,22.3
2018-01-28T03:55:08.022Z,22.2
2018-01-28T03:56:07.903Z,22.2
2018-01-28T03:57:07.792Z,22.2
2018-01-28T03:58:08.045Z,22.2
2018-01-28T03:59:07.835Z,22.2
2018-01-28T04:00:07.851Z,22.2
2018-01-28T04:01:07.749Z,22.2
2018-01-28T04:02:07.496Z,22.2
2018-01-28T04:03:07.354Z,22.3
2018-01-28T04:04:07.344Z,22.3
2018-01-28T04:05:07.302Z,22.3
2018-01-28T04:06:07.185Z,22.3
2018-01-28T04:07:07.103Z,22.3
2018-01-28T04:08:07.103Z,22.3
2018-01-28T04:09:06.973Z,22.3
2018-01-28T04:10:06.961Z,22.2
2018-01-28T04:11:06.846Z,22.2
2018-01-28T04:12:06.998Z,22.2
2018-01-28T04:13:06.688Z,22.2
2018-01-28T04:14:06.591Z,22.2
2018-01-28T04:15:06.572Z,22.2
2018-01-28T04:16:06.508Z,22.2
2018-01-28T04:17:06.432Z,22.2
2018-01-28T04:18:06.509Z,22.2
2018-01-28T04:19:06.056Z,22.2
2018-01-28T04:20:06.479Z,22.3
2018-01-28T04:21:06.285Z,22.3
2018-01-28T04:22:06.159Z,22.3
2018-01-28T04:23:05.905Z,22.3
2018-01-28T04:24:06.145Z,22.3
2018-01-28T04:25:05.813Z,22.2
2018-01-28T04:26:05.802Z,22.2
2018-01-28T04:27:05.470Z,22.2
2018-01-28T04:28:05.331Z,22.2
2018-01-28T04:29:05.601Z,22.2
2018-01-28T04:30:05.544Z,22.2
2018-01-28T04:31:05.217Z,22.1
2018-01-28T04:32:05.102Z,22.1
2018-01-28T04:33:05.302Z,22.1
2018-01-28T04:34:05.091Z,22.1
2018-01-28T04:35:04.837Z,22.1
2018-01-28T04:36:05.110Z,22.1
2018-01-28T04:37:05.150Z,22.1
2018-01-28T04:38:04.544Z,22.1
2018-01-28T04:39:04.738Z,22.1
2018-01-28T04:40:04.615Z,22.1
2018-01-28T04:41:04.554Z,22.1
2018-01-28T04:42:04.440Z,22.1
2018-01-28T04:43:04.240Z,22.1
2018-01-28T04:44:04.163Z,22.2
2018-01-28T04:45:04.228Z,22.2
2018-01-28T04:46:04.037Z,22.2
2018-01-28T04:47:04.099Z,22.1
2018-01-28T04:48:04.091Z,22.1
2018-01-28T04:49:03.896Z,22.1
2018-01-28T04:50:03.689Z,22.1
2018-01-28T04:51:04.143Z,22.1
2018-01-28T04:52:03.598Z,22.1
2018-01-28T04:53:03.360Z,22.1
2018-01-28T04:54:03.688Z,22.1
2018-01-28T04:55:03.204Z,22.1
2018-01-28T04:56:03.621Z,22.1
2018-01-28T04:57:03.489Z,22.1
2018-01-28T04:58:02.998Z,22.1
2018-01-28T04:59:03.057Z,22.1
2018-01-28T05:00:03.371Z,22.2
2018-01-28T05:01:02.966Z,22.1
2018-01-28T05:02:02.838Z,22.1
2018-01-28T05:03:02.691Z,22.1
2018-01-28T05:04:02.528Z,22.1
2018-01-28T05:05:02.442Z,22.1
2018-01-28T05:06:02.995Z,22.1
2018-01-28T05:07:02.569Z,22.1
2018-01-28T05:08:02.233Z,22.1
2018-01-28T05:09:02.509Z,22.1
2018-01-28T05:10:02.293Z,22.1
2018-01-28T05:11:02.037Z,22.1
2018-01-28T05:12:02.101Z,22.1
2018-01-28T05:13:01.842Z,22.1
2018-01-28T05:14:02.345Z,22
2018-01-28T05:15:01.755Z,22
2018-01-28T05:16:01.609Z,22
2018-01-28T05:17:01.596Z,22
2018-01-28T05:18:01.744Z,22.1
2018-01-28T05:19:01.598Z,22
2018-01-28T05:20:01.385Z,22.1
2018-01-28T05:21:01.240Z,22.1
2018-01-28T05:22:01.311Z,22.1
2018-01-28T05:23:01.523Z,22.1
2018-01-28T05:24:01.098Z,22.1
2018-01-28T05:25:00.894Z,22.1
2018-01-28T05:26:00.985Z,22.2
2018-01-28T05:27:00.784Z,22.2
2018-01-28T05:28:00.717Z,22.2
2018-01-28T05:29:01.094Z,22.2
2018-01-28T05:30:00.814Z,22.2
2018-01-28T05:31:00.765Z,22.1
2018-01-28T05:32:00.441Z,22.1
2018-01-28T05:33:00.712Z,22.1
2018-01-28T05:34:00.618Z,22.1
2018-01-28T05:35:00.302Z,22.1
2018-01-28T05:36:00.565Z,22.1
2018-01-28T05:37:00.177Z,22.1
2018-01-28T05:38:00.233Z,22.1
2018-01-28T05:38:59.982Z,22.1
2018-01-28T05:40:00.077Z,22.1
2018-01-28T05:40:59.772Z,22.1
2018-01-28T05:41:59.885Z,22.1
2018-01-28T05:42:59.716Z,22.1
2018-01-28T05:43:59.733Z,22.1
2018-01-28T05:44:59.592Z,22.1
2018-01-28T05:45:59.512Z,22.1
2018-01-28T05:46:59.427Z,22.1
2018-01-28T05:47:59.590Z,22.2
2018-01-28T05:48:59.174Z,22.2
2018-01-28T05:49:59.254Z,22.2
2018-01-28T05:50:59.554Z,22.2
2018-01-28T05:51:59.108Z,22.2
2018-01-28T05:52:59.366Z,22.2
2018-01-28T05:53:58.939Z,22.2
2018-01-28T05:54:59.101Z,22.2
2018-01-28T05:55:58.693Z,22.1
2018-01-28T05:56:58.672Z,22.1
2018-01-28T05:57:58.663Z,22.1
2018-01-28T05:58:58.645Z,22.1
2018-01-28T05:59:58.553Z,22.1
2018-01-28T06:00:58.390Z,22.1
2018-01-28T06:01:58.306Z,22.1
2018-01-28T06:02:58.429Z,22.1
2018-01-28T06:03:58.530Z,22.1
2018-01-28T06:04:58.347Z,22.1
2018-01-28T06:05:58.353Z,22.1
2018-01-28T06:06:58.098Z,22.1
2018-01-28T06:07:57.999Z,22.1
2018-01-28T06:08:57.913Z,22.1
2018-01-28T06:09:58.046Z,22.1
2018-01-28T06:10:57.926Z,22.1
2018-01-28T06:11:58.109Z,22.1
2018-01-28T06:12:57.789Z,22.1
2018-01-28T06:13:57.791Z,22.1
2018-01-28T06:14:57.496Z,22.1
2018-01-28T06:15:57.342Z,22.1
2018-01-28T06:16:57.388Z,22.1
2018-01-28T06:17:57.644Z,22.1
2018-01-28T06:18:57.249Z,22.1
2018-01-28T06:19:57.152Z,22
2018-01-28T06:20:57.109Z,22
2018-01-28T06:21:56.987Z,22.1
2018-01-28T06:22:57.052Z,22.1
2018-01-28T06:23:56.786Z,22.1
2018-01-28T06:24:56.847Z,22.1
2018-01-28T06:25:56.643Z,22
2018-01-28T06:26:56.892Z,22
2018-01-28T06:27:56.647Z,22
2018-01-28T06:28:56.743Z,22
2018-01-28T06:29:56.458Z,22
2018-01-28T06:30:56.493Z,22
2018-01-28T06:31:56.214Z,22
2018-01-28T06:32:56.153Z,22
2018-01-28T06:33:56.105Z,22
2018-01-28T06:34:56.003Z,22
2018-01-28T06:35:56.566Z,22.1
2018-01-28T06:36:56.128Z,22
2018-01-28T06:37:56.068Z,22
2018-01-28T06:38:56.115Z,22.1
2018-01-28T06:39:56.061Z,22.1
2018-01-28T06:40:55.598Z,22.1
2018-01-28T06:41:56.051Z,22.1
2018-01-28T06:42:55.519Z,22
2018-01-28T06:43:55.592Z,22
2018-01-28T06:44:55.506Z,22
2018-01-28T06:45:55.374Z,22
2018-01-28T06:46:55.518Z,22
2018-01-28T06:47:55.870Z,22
2018-01-28T06:48:55.280Z,22
2018-01-28T06:49:55.206Z,22
2018-01-28T06:50:55.144Z,22
2018-01-28T06:51:54.927Z,22
2018-01-28T06:52:54.906Z,22
2018-01-28T06:53:54.845Z,22.1
2018-01-28T06:54:54.834Z,22.1
2018-01-28T06:55:54.744Z,22.1
2018-01-28T06:56:54.523Z,22.1
2018-01-28T06:57:54.637Z,22.1
2018-01-28T06:58:54.412Z,22.1
2018-01-28T06:59:54.944Z,22.2
2018-01-28T07:00:54.301Z,22.2
2018-01-28T07:01:54.262Z,22.2
2018-01-28T07:02:54.080Z,22.3
2018-01-28T07:03:54.106Z,22.2
2018-01-28T07:04:54.166Z,22.2
2018-01-28T07:05:54.064Z,22.3
2018-01-28T07:06:53.857Z,22.3
2018-01-28T07:07:53.859Z,22.3
2018-01-28T07:08:53.856Z,22.3
2018-01-28T07:09:53.606Z,22.3
2018-01-28T07:10:53.607Z,22.3
2018-01-28T07:11:54.381Z,22.4
2018-01-28T07:12:53.471Z,22.4
2018-01-28T07:13:53.708Z,22.4
2018-01-28T07:14:53.564Z,22.4
2018-01-28T07:15:53.514Z,22.4
2018-01-28T07:16:53.303Z,22.4
2018-01-28T07:17:53.094Z,22.4
2018-01-28T07:18:53.088Z,22.4
2018-01-28T07:19:53.016Z,22.4
2018-01-28T07:20:52.935Z,22.3
2018-01-28T07:21:53.338Z,22.3
2018-01-28T07:22:52.655Z,22.3
2018-01-28T07:23:52.939Z,22.3
2018-01-28T07:24:52.886Z,22.3
2018-01-28T07:25:52.793Z,22.3
2018-01-28T07:26:52.501Z,22.3
2018-01-28T07:27:52.624Z,22.3
2018-01-28T07:28:52.573Z,22.3
2018-01-28T07:29:52.305Z,22.3
2018-01-28T07:30:52.283Z,22.3
2018-01-28T07:31:52.263Z,22.3
2018-01-28T07:32:52.438Z,22.4
2018-01-28T07:33:51.990Z,22.4
2018-01-28T07:34:51.914Z,22.4
2018-01-28T07:35:51.968Z,22.4
2018-01-28T07:36:51.948Z,22.5
2018-01-28T07:37:52.056Z,22.5
2018-01-28T07:38:51.998Z,22.6
2018-01-28T07:39:51.760Z,22.6
2018-01-28T07:40:51.645Z,22.6
2018-01-28T07:41:51.762Z,22.6
2018-01-28T07:42:51.450Z,22.6
2018-01-28T07:43:51.414Z,22.6
2018-01-28T07:44:51.396Z,22.6
2018-01-28T07:45:51.159Z,22.6
2018-01-28T07:46:51.423Z,22.7
2018-01-28T07:47:51.187Z,22.7
2018-01-28T07:48:50.983Z,22.8
2018-01-28T07:49:51.234Z,22.8
2018-01-28T07:50:51.007Z,22.8
2018-01-28T07:51:50.968Z,22.8
2018-01-28T07:52:50.736Z,22.8
2018-01-28T07:53:50.779Z,22.8
2018-01-28T07:54:50.823Z,22.8
2018-01-28T07:55:50.650Z,22.9
2018-01-28T07:56:50.818Z,22.9
2018-01-28T07:57:50.353Z,22.9
2018-01-28T07:58:50.217Z,22.9
2018-01-28T07:59:50.225Z,22.9
2018-01-28T08:00:50.049Z,22.9
2018-01-28T08:01:50.338Z,22.9
2018-01-28T08:02:50.125Z,22.9
2018-01-28T08:03:49.996Z,22.9
2018-01-28T08:04:50.011Z,22.9
2018-01-28T08:05:49.800Z,22.9
2018-01-28T08:06:49.711Z,22.9
2018-01-28T08:07:49.695Z,22.9
2018-01-28T08:08:49.732Z,22.9
2018-01-28T08:09:49.445Z,22.9
2018-01-28T08:10:49.567Z,22.9
2018-01-28T08:11:49.501Z,22.9
2018-01-28T08:12:49.660Z,22.9
2018-01-28T08:13:49.668Z,23
2018-01-28T08:14:49.150Z,23
2018-01-28T08:15:49.152Z,23
2018-01-28T08:16:49.228Z,23
2018-01-28T08:17:48.948Z,22.9
2018-01-28T08:18:49.015Z,23
2018-01-28T08:19:48.879Z,23
2018-01-28T08:20:48.771Z,23
2018-01-28T08:21:49.018Z,23
2018-01-28T08:22:48.689Z,23
2018-01-28T08:23:48.761Z,23
2018-01-28T08:24:48.503Z,23
2018-01-28T08:25:48.499Z,23
2018-01-28T08:26:48.588Z,23
2018-01-28T08:27:48.264Z,23
2018-01-28T08:28:48.520Z,23
2018-01-28T08:29:48.061Z,23
2018-01-28T08:30:48.325Z,23
2018-01-28T08:31:48.144Z,23
2018-01-28T08:32:48.009Z,23
2018-01-28T08:33:47.869Z,23.1
2018-01-28T08:34:47.801Z,23
2018-01-28T08:35:47.702Z,23.1
2018-01-28T08:36:47.588Z,23
2018-01-28T08:37:47.607Z,23.1
2018-01-28T08:38:47.750Z,23
2018-01-28T08:39:47.440Z,23.1
2018-01-28T08:40:47.509Z,23.1
2018-01-28T08:41:47.350Z,23.1
2018-01-28T08:42:47.350Z,23.1
2018-01-28T08:43:47.295Z,23.1
2018-01-28T08:44:47.164Z,23.1
2018-01-28T08:45:47.267Z,23.1
2018-01-28T08:46:47.212Z,23.1
2018-01-28T08:47:46.925Z,23.1
2018-01-28T08:48:46.950Z,23.1
2018-01-28T08:49:47.070Z,23.1
2018-01-28T08:50:46.697Z,23.1
2018-01-28T08:51:46.500Z,23.1
2018-01-28T08:52:46.482Z,23.1
2018-01-28T08:53:46.383Z,23.1
2018-01-28T08:54:46.833Z,23.1
2018-01-28T08:55:46.531Z,23.1
2018-01-28T08:56:46.712Z,23.1
2018-01-28T08:57:46.142Z,23.1
2018-01-28T08:58:46.044Z,23.1
2018-01-28T09:00:18.459Z,23.1
2018-01-28T09:00:45.917Z,23.1
2018-01-28T09:01:45.793Z,23.1
2018-01-28T09:02:46.126Z,23.1
2018-01-28T09:03:45.858Z,23.1
2018-01-28T09:04:45.627Z,23.1
2018-01-28T09:05:45.754Z,23.1
2018-01-28T09:06:45.574Z,23.1
2018-01-28T09:07:45.851Z,23.1
2018-01-28T09:08:45.551Z,23.1
2018-01-28T09:09:45.316Z,23.1
2018-01-28T09:10:45.505Z,23.1
2018-01-28T09:11:45.144Z,23.1
2018-01-28T09:12:45.083Z,23.1
2018-01-28T09:13:45.135Z,23.1
2018-01-28T09:14:45.072Z,23.1
2018-01-28T09:15:45.211Z,23.1
2018-01-28T09:16:45.100Z,23.1
2018-01-28T09:17:44.773Z,23.1
2018-01-28T09:18:44.830Z,23.1
2018-01-28T09:19:44.424Z,23.1
2018-01-28T09:20:44.465Z,23.2
2018-01-28T09:21:44.538Z,23.2
2018-01-28T09:22:44.306Z,23.1
2018-01-28T09:23:44.566Z,23.1
2018-01-28T09:24:44.136Z,23.1
2018-01-28T09:25:44.023Z,23.1
2018-01-28T09:26:44.531Z,23.1
2018-01-28T09:27:44.020Z,23.1
2018-01-28T09:28:44.011Z,23.1
2018-01-28T09:29:43.734Z,23.1
2018-01-28T09:30:43.853Z,23.1
2018-01-28T09:31:43.507Z,23.1
2018-01-28T09:32:43.404Z,23.1
2018-01-28T09:33:43.564Z,23.1
2018-01-28T09:34:43.440Z,23.1
2018-01-28T09:35:43.724Z,23.1
2018-01-28T09:36:43.156Z,23.1
2018-01-28T09:37:43.053Z,23.1
2018-01-28T09:38:43.256Z,23.1
2018-01-28T09:39:42.933Z,23
2018-01-28T09:40:42.951Z,23.1
2018-01-28T09:41:42.987Z,23
2018-01-28T09:42:42.791Z,23
2018-01-28T09:43:42.527Z,23
2018-01-28T09:44:42.569Z,23
2018-01-28T09:45:42.660Z,23
2018-01-28T09:46:42.377Z,23
2018-01-28T09:47:42.396Z,23
2018-01-28T09:48:42.255Z,23
2018-01-28T09:49:42.110Z,23
2018-01-28T09:50:42.356Z,23
2018-01-28T09:51:42.098Z,23
2018-01-28T09:52:41.929Z,23
2018-01-28T09:53:41.854Z,23.1
2018-01-28T09:54:42.091Z,23
2018-01-28T09:55:41.780Z,23
2018-01-28T09:56:41.889Z,23
2018-01-28T09:57:41.676Z,23
2018-01-28T09:58:41.468Z,23
2018-01-28T09:59:41.465Z,23
2018-01-28T10:00:41.196Z,23
2018-01-28T10:01:41.387Z,23
2018-01-28T10:02:41.384Z,23
2018-01-28T10:03:41.182Z,23
2018-01-28T10:04:40.960Z,23
2018-01-28T10:05:41.117Z,23
2018-01-28T10:06:40.785Z,22.9
2018-01-28T10:07:41.277Z,22.9
2018-01-28T10:08:40.840Z,22.9
2018-01-28T10:09:40.525Z,23
2018-01-28T10:10:40.457Z,22.9
2018-01-28T10:11:40.646Z,22.9
2018-01-28T10:12:40.335Z,22.9
2018-01-28T10:13:40.331Z,22.9
2018-01-28T10:14:40.197Z,22.9
2018-01-28T10:15:40.427Z,22.9
2018-01-28T10:16:39.964Z,22.9
2018-01-28T10:17:39.886Z,22.9
2018-01-28T10:18:39.908Z,22.9
2018-01-28T10:19:40.035Z,22.9
2018-01-28T10:20:40.113Z,22.9
2018-01-28T10:21:39.597Z,22.9
2018-01-28T10:22:39.776Z,22.9
2018-01-28T10:23:39.783Z,22.9
2018-01-28T10:24:39.676Z,22.9
2018-01-28T10:25:39.616Z,22.9
2018-01-28T10:26:39.534Z,22.9
2018-01-28T10:27:39.123Z,22.9
2018-01-28T10:28:39.197Z,22.9
2018-01-28T10:29:39.060Z,22.9
2018-01-28T10:30:39.067Z,22.9
2018-01-28T10:31:38.867Z,22.9
2018-01-28T10:32:39.109Z,22.9
2018-01-28T10:33:38.693Z,22.9
2018-01-28T10:34:38.606Z,22.9
2018-01-28T10:35:38.471Z,22.9
2018-01-28T10:36:38.465Z,22.9
2018-01-28T10:37:38.491Z,22.9
2018-01-28T10:38:38.265Z,22.9
2018-01-28T10:39:38.771Z,22.9
2018-01-28T10:40:38.329Z,22.9
2018-01-28T10:41:38.169Z,22.9
2018-01-28T10:42:38.300Z,22.9
2018-01-28T10:43:38.101Z,22.9
2018-01-28T10:44:37.942Z,22.9
2018-01-28T10:45:37.798Z,22.9
2018-01-28T10:46:37.605Z,22.9
2018-01-28T10:47:37.625Z,22.9
2018-01-28T10:48:37.448Z,22.9
2018-01-28T10:49:37.609Z,22.9
2018-01-28T10:50:37.322Z,22.9
2018-01-28T10:51:37.749Z,22.9
2018-01-28T10:52:37.113Z,22.9
2018-01-28T10:53:37.122Z,22.9
2018-01-28T10:54:37.073Z,22.9
2018-01-28T10:55:36.879Z,22.9
2018-01-28T10:56:36.936Z,22.9
2018-01-28T10:57:36.888Z,22.9
2018-01-28T10:58:36.734Z,22.9
2018-01-28T10:59:36.680Z,22.9
2018-01-28T11:00:36.538Z,22.9
2018-01-28T11:01:36.723Z,22.9
2018-01-28T11:02:36.418Z,22.9
2018-01-28T11:03:36.252Z,22.9
2018-01-28T11:04:36.199Z,22.9
2018-01-28T11:05:36.241Z,22.9
2018-01-28T11:06:36.501Z,22.9
2018-01-28T11:07:35.931Z,22.9
2018-01-28T11:08:35.974Z,22.9
2018-01-28T11:09:35.824Z,22.9
2018-01-28T11:10:36.011Z,22.9
2018-01-28T11:11:35.795Z,22.8
2018-01-28T11:12:35.694Z,22.9
2018-01-28T11:13:35.584Z,22.9
2018-01-28T11:14:35.345Z,22.8
2018-01-28T11:15:35.801Z,22.8
2018-01-28T11:16:35.330Z,22.8
2018-01-28T11:17:35.268Z,22.8
2018-01-28T11:18:35.153Z,22.8
2018-01-28T11:19:35.099Z,22.8
2018-01-28T11:20:34.940Z,22.8
2018-01-28T11:21:35.330Z,22.8
2018-01-28T11:22:35.004Z,22.8
2018-01-28T11:23:34.691Z,22.8
2018-01-28T11:24:34.787Z,22.8
2018-01-28T11:25:34.541Z,22.8
2018-01-28T11:26:34.526Z,22.8
2018-01-28T11:27:34.814Z,22.8
2018-01-28T11:28:34.656Z,22.8
2018-01-28T11:29:34.308Z,22.8
2018-01-28T11:30:34.332Z,22.8
2018-01-28T11:31:34.201Z,22.8
2018-01-28T11:32:34.647Z,22.8
2018-01-28T11:33:33.854Z,22.8
2018-01-28T11:34:33.837Z,22.8
2018-01-28T11:35:33.738Z,22.8
2018-01-28T11:36:33.857Z,22.8
2018-01-28T11:37:33.754Z,22.8
2018-01-28T11:38:33.461Z,22.8
2018-01-28T11:39:33.914Z,22.8
2018-01-28T11:40:33.607Z,22.8
2018-01-28T11:41:33.424Z,22.8
2018-01-28T11:42:33.214Z,22.8
2018-01-28T11:43:33.313Z,22.8
2018-01-28T11:44:33.555Z,22.8
2018-01-28T11:45:33.216Z,22.8
2018-01-28T11:46:33.066Z,22.8
2018-01-28T11:47:32.976Z,22.8
2018-01-28T11:48:33.007Z,22.8
2018-01-28T11:49:32.879Z,22.8
2018-01-28T11:50:32.640Z,22.8
2018-01-28T11:51:32.772Z,22.8
2018-01-28T11:52:32.636Z,22.8
2018-01-28T11:53:32.661Z,22.8
2018-01-28T11:54:32.717Z,22.8
2018-01-28T11:55:32.466Z,22.8
2018-01-28T11:56:32.457Z,22.8
2018-01-28T11:57:32.177Z,22.8
2018-01-28T11:58:32.485Z,22.8
2018-01-28T11:59:32.232Z,22.8
2018-01-28T12:00:32.111Z,22.8
2018-01-28T12:01:32.196Z,22.8
2018-01-28T12:02:32.033Z,22.8
2018-01-28T12:03:31.911Z,22.8
2018-01-28T12:04:32.189Z,22.8
2018-01-28T12:05:31.872Z,22.8
2018-01-28T12:06:31.792Z,22.8
2018-01-28T12:07:31.587Z,22.8
2018-01-28T12:08:31.530Z,22.8
2018-01-28T12:09:31.636Z,22.8
2018-01-28T12:10:31.707Z,22.8
2018-01-28T12:11:31.448Z,22.8
2018-01-28T12:12:31.287Z,22.8
2018-01-28T12:13:31.522Z,22.7
2018-01-28T12:14:31.252Z,22.7
2018-01-28T12:15:31.106Z,22.7
2018-01-28T12:16:31.259Z,22.7
2018-01-28T12:17:30.992Z,22.7
2018-01-28T12:18:31.002Z,22.7
2018-01-28T12:19:31.262Z,22.7
2018-01-28T12:20:30.561Z,22.7
2018-01-28T12:21:30.843Z,22.7
2018-01-28T12:22:30.421Z,22.7
2018-01-28T12:23:30.448Z,22.7
2018-01-28T12:24:30.335Z,22.7
2018-01-28T12:25:30.617Z,22.7
2018-01-28T12:26:30.674Z,22.7
2018-01-28T12:27:30.200Z,22.7
2018-01-28T12:28:30.462Z,22.7
2018-01-28T12:29:30.350Z,22.7
2018-01-28T12:30:30.127Z,22.7
2018-01-28T12:31:29.840Z,22.7
2018-01-28T12:32:30.108Z,22.7
2018-01-28T12:33:30.266Z,22.7
2018-01-28T12:34:29.616Z,22.7
2018-01-28T12:35:29.685Z,22.6
2018-01-28T12:36:29.474Z,22.7
2018-01-28T12:37:29.432Z,22.6
2018-01-28T12:38:29.731Z,22.6
2018-01-28T12:39:29.694Z,22.6
2018-01-28T12:40:29.316Z,22.6
2018-01-28T12:41:29.206Z,22.6
2018-01-28T12:42:29.558Z,22.6
2018-01-28T12:43:29.057Z,22.6
2018-01-28T12:44:29.143Z,22.6
2018-01-28T12:45:28.850Z,22.6
2018-01-28T12:46:29.100Z,22.6
2018-01-28T12:47:29.052Z,22.6
2018-01-28T12:48:28.793Z,22.6
2018-01-28T12:49:28.582Z,22.6
2018-01-28T12:50:28.606Z,22.6
2018-01-28T12:51:28.593Z,22.6
2018-01-28T12:52:28.616Z,22.6
2018-01-28T12:53:28.421Z,22.6
2018-01-28T12:54:28.561Z,22.6
2018-01-28T12:55:28.245Z,22.6
2018-01-28T12:56:28.211Z,22.6
2018-01-28T12:57:28.156Z,22.6
2018-01-28T12:58:28.058Z,22.6
2018-01-28T12:59:27.987Z,22.5
2018-01-28T13:00:28.164Z,22.6
2018-01-28T13:01:27.857Z,22.5
2018-01-28T13:02:27.927Z,22.6
2018-01-28T13:03:27.887Z,22.6
2018-01-28T13:04:27.664Z,22.5
2018-01-28T13:05:27.537Z,22.6
2018-01-28T13:06:27.596Z,22.5
2018-01-28T13:07:27.466Z,22.5
2018-01-28T13:08:27.703Z,22.5
2018-01-28T13:09:27.410Z,22.5
2018-01-28T13:10:27.135Z,22.5
2018-01-28T13:11:27.429Z,22.5
2018-01-28T13:12:27.100Z,22.5
2018-01-28T13:13:27.385Z,22.5
2018-01-28T13:14:27.058Z,22.5
2018-01-28T13:15:26.988Z,22.4
2018-01-28T13:16:26.969Z,22.4
2018-01-28T13:17:26.667Z,22.5
2018-01-28T13:18:26.579Z,22.5
2018-01-28T13:19:26.648Z,22.4
2018-01-28T13:20:26.480Z,22.4
2018-01-28T13:21:26.366Z,22.4
2018-01-28T13:22:26.450Z,22.4